Time;durP1;ratioP1;P1;durP2;ratioP2;P2;SDS_P1;SDS_P2;PMS_P1;PMS_P2;Temp;Humidity;BMP_temperature;BMP_pressure;BME280_temperature;BME280_humidity;BME280_pressure;Samples;Min_cycle;Max_cycle;Signal;HPM_P1;HPM_P2
2022/05/04 00:00:45;;;;;;;20.07;17.70;;;;;20.80;100719.00;;;;2070066;28;20209;-46
2022/05/04 00:01:46;;;;;;;18.83;16.83;;;;;20.80;100712.00;;;;2070187;28;20260;-46
2022/05/04 00:02:46;;;;;;;17.23;15.40;;;;;20.80;100712.00;;;;2070110;28;20272;-47
2022/05/04 00:03:46;;;;;;;18.97;16.70;;;;;20.80;100716.00;;;;2070137;28;20227;-46
2022/05/04 00:04:47;;;;;;;19.50;16.50;;;;;20.80;100711.00;;;;2071263;28;20225;-46
2022/05/04 00:05:48;;;;;;;18.73;15.80;;;;;20.80;100720.00;;;;2071060;28;20234;-46
2022/05/04 00:06:49;;;;;;;22.50;16.70;;;;;20.80;100713.00;;;;2071603;28;20213;-46
2022/05/04 00:07:50;;;;;;;18.37;14.30;;;;;20.80;100707.00;;;;2072027;28;20224;-46
2022/05/04 00:08:50;;;;;;;18.40;14.80;;;;;20.80;100705.00;;;;2074453;28;21356;-46
2022/05/04 00:09:50;;;;;;;17.57;14.67;;;;;20.80;100704.00;;;;2073056;28;20243;-46
2022/05/04 00:10:51;;;;;;;19.80;16.10;;;;;20.80;100708.00;;;;2071888;28;20301;-46
2022/05/04 00:11:51;;;;;;;16.70;14.13;;;;;20.80;100707.00;;;;2071131;28;21145;-47
2022/05/04 00:12:51;;;;;;;16.13;13.23;;;;;20.80;100708.00;;;;2077178;28;20709;-46
2022/05/04 00:13:52;;;;;;;17.63;13.83;;;;;20.80;100699.00;;;;2079812;28;20220;-46
2022/05/04 00:14:52;;;;;;;15.67;12.87;;;;;20.70;100701.00;;;;2075511;28;20678;-51
2022/05/04 00:15:53;;;;;;;15.93;13.93;;;;;20.80;100709.00;;;;2071119;28;20765;-50
2022/05/04 00:16:53;;;;;;;15.83;12.90;;;;;20.70;100701.00;;;;2071858;28;20206;-49
2022/05/04 00:17:53;;;;;;;15.53;13.23;;;;;20.80;100701.00;;;;2074031;28;20228;-49
2022/05/04 00:18:54;;;;;;;15.43;12.90;;;;;20.50;100701.00;;;;2079050;28;20300;-47
2022/05/04 00:19:54;;;;;;;14.77;12.20;;;;;20.70;100698.00;;;;2075303;28;20210;-46
2022/05/04 00:20:55;;;;;;;13.93;12.20;;;;;20.70;100704.00;;;;2071681;28;20678;-46
2022/05/04 00:21:55;;;;;;;15.33;13.23;;;;;20.70;100706.00;;;;2071988;28;20638;-46
2022/05/04 00:22:55;;;;;;;14.17;12.00;;;;;20.60;100705.00;;;;2071837;28;20221;-46
2022/05/04 00:23:55;;;;;;;17.23;12.70;;;;;20.70;100709.00;;;;2075545;28;20209;-47
2022/05/04 00:24:56;;;;;;;14.57;12.20;;;;;20.70;100704.00;;;;2078940;28;20252;-46
2022/05/04 00:25:57;;;;;;;14.70;11.60;;;;;20.70;100703.00;;;;2078626;28;20237;-47
2022/05/04 00:26:57;;;;;;;14.50;11.70;;;;;20.70;100712.00;;;;2079688;28;20258;-47
2022/05/04 00:27:59;;;;;;;12.90;11.10;;;;;20.70;100707.00;;;;2079830;28;20255;-46
2022/05/04 00:28:59;;;;;;;12.90;10.57;;;;;20.70;100711.00;;;;2079267;28;20224;-46
2022/05/04 00:30:00;;;;;;;12.67;9.97;;;;;20.70;100703.00;;;;2079565;28;21055;-46
2022/05/04 00:31:00;;;;;;;13.50;11.37;;;;;20.70;100704.00;;;;2079311;28;20653;-46
2022/05/04 00:32:00;;;;;;;12.03;10.20;;;;;20.70;100704.00;;;;2080016;28;21090;-47
2022/05/04 00:33:00;;;;;;;12.73;10.57;;;;;20.70;100706.00;;;;2078262;28;20644;-46
2022/05/04 00:34:01;;;;;;;11.50;9.90;;;;;20.70;100702.00;;;;2079905;28;20221;-46
2022/05/04 00:35:01;;;;;;;11.47;9.60;;;;;20.70;100699.00;;;;2079707;28;20210;-46
2022/05/04 00:36:01;;;;;;;10.73;9.50;;;;;20.70;100703.00;;;;2078748;28;20221;-46
2022/05/04 00:37:02;;;;;;;13.47;10.20;;;;;20.70;100699.00;;;;2079644;28;20296;-46
2022/05/04 00:38:02;;;;;;;11.37;9.80;;;;;20.70;100702.00;;;;2079770;28;20209;-46
2022/05/04 00:39:03;;;;;;;10.73;9.63;;;;;20.70;100701.00;;;;2079749;28;20582;-47
2022/05/04 00:40:03;;;;;;;11.63;10.20;;;;;20.70;100701.00;;;;2075864;28;20214;-46
2022/05/04 00:41:04;;;;;;;11.83;10.30;;;;;20.70;100706.00;;;;2071594;28;20206;-47
2022/05/04 00:42:15;;;;;;;11.73;9.90;;;;;20.50;100700.00;;;;2071527;28;20214;-46
2022/05/04 00:43:22;;;;;;;11.15;9.23;;;;;20.70;100700.00;;;;2071778;28;20206;-46
2022/05/04 00:44:23;;;;;;;10.38;8.90;;;;;20.70;100704.00;;;;2071774;28;20218;-47
2022/05/04 00:45:23;;;;;;;9.93;8.90;;;;;20.60;100694.00;;;;2070936;28;20217;-46
2022/05/04 00:46:24;;;;;;;11.33;9.80;;;;;20.70;100692.00;;;;2071296;28;20210;-47
2022/05/04 00:47:24;;;;;;;9.60;8.60;;;;;20.70;100702.00;;;;2071491;28;20210;-46
2022/05/04 00:48:25;;;;;;;9.93;8.90;;;;;20.70;100709.00;;;;2077651;28;20290;-47
2022/05/04 00:49:25;;;;;;;9.67;8.70;;;;;20.60;100701.00;;;;2072677;28;20214;-48
2022/05/04 00:50:25;;;;;;;11.40;8.50;;;;;20.70;100709.00;;;;2071437;28;20206;-47
2022/05/04 00:51:26;;;;;;;11.50;9.20;;;;;20.60;100703.00;;;;2070964;28;20238;-46
2022/05/04 00:52:26;;;;;;;10.87;9.33;;;;;20.60;100702.00;;;;2071018;28;20214;-47
2022/05/04 00:53:26;;;;;;;9.57;8.43;;;;;20.60;100691.00;;;;2070828;28;20673;-45
2022/05/04 00:54:27;;;;;;;10.67;8.10;;;;;20.60;100697.00;;;;2074798;28;20612;-46
2022/05/04 00:55:27;;;;;;;10.30;8.30;;;;;20.60;100697.00;;;;2078392;28;20272;-47
2022/05/04 00:56:27;;;;;;;10.13;8.73;;;;;20.60;100691.00;;;;2079730;28;20643;-47
2022/05/04 00:58:56;;;;;;;10.82;8.43;;;;;20.60;100699.00;;;;2067129;28;20698;-46
2022/05/04 00:59:56;;;;;;;9.73;7.10;;;;;20.60;100698.00;;;;2067200;28;20691;-46
2022/05/04 01:00:59;;;;;;;8.93;7.90;;;;;20.40;100696.00;;;;2069988;28;20210;-46
2022/05/04 01:01:59;;;;;;;8.63;6.82;;;;;20.60;100697.00;;;;2063248;28;20221;-46
2022/05/04 01:03:00;;;;;;;8.57;7.50;;;;;20.60;100701.00;;;;2069733;28;20202;-47
2022/05/04 01:04:00;;;;;;;9.00;7.10;;;;;20.60;100704.00;;;;2069646;28;20265;-46
2022/05/04 01:05:00;;;;;;;8.53;7.50;;;;;20.60;100698.00;;;;2069820;28;20217;-53
2022/05/04 01:06:01;;;;;;;8.57;7.20;;;;;20.60;100698.00;;;;2070687;28;20211;-48
2022/05/04 01:07:01;;;;;;;8.37;7.07;;;;;20.60;100699.00;;;;2071506;28;20198;-49
2022/05/04 01:08:01;;;;;;;8.77;7.23;;;;;20.60;100700.00;;;;2070536;28;20217;-52
2022/05/04 01:09:02;;;;;;;9.50;7.33;;;;;20.60;100695.00;;;;2071398;28;20305;-49
2022/05/04 01:10:03;;;;;;;7.97;6.67;;;;;20.60;100696.00;;;;2071011;28;20207;-49
2022/05/04 01:11:04;;;;;;;7.90;6.60;;;;;20.60;100703.00;;;;2071273;28;20886;-47
2022/05/04 01:12:04;;;;;;;8.50;7.07;;;;;20.60;100697.00;;;;2070463;28;20226;-47
2022/05/04 01:13:05;;;;;;;8.20;7.03;;;;;20.60;100693.00;;;;2070707;28;20679;-46
2022/05/04 01:14:15;;;;;;;10.30;6.63;;;;;20.60;100701.00;;;;2070844;28;20211;-47
2022/05/04 01:15:16;;;;;;;8.75;6.60;;;;;20.60;100695.00;;;;2075179;28;20301;-46
2022/05/04 01:16:16;;;;;;;6.88;6.00;;;;;20.60;100697.00;;;;2078327;28;20292;-46
2022/05/04 01:17:17;;;;;;;8.53;6.10;;;;;20.60;100702.00;;;;2079554;28;20206;-46
2022/05/04 01:18:17;;;;;;;7.57;6.40;;;;;20.60;100700.00;;;;2074358;28;20662;-46
2022/05/04 01:19:17;;;;;;;8.40;6.23;;;;;20.60;100706.00;;;;2072992;28;20224;-46
2022/05/04 01:20:18;;;;;;;7.90;6.37;;;;;20.60;100701.00;;;;2072663;28;20233;-46
2022/05/04 01:21:18;;;;;;;7.47;6.20;;;;;20.60;100699.00;;;;2077280;28;20229;-47
2022/05/04 01:22:18;;;;;;;7.50;6.27;;;;;20.60;100702.00;;;;2079146;28;20210;-47
2022/05/04 01:23:19;;;;;;;7.40;6.17;;;;;20.60;100694.00;;;;2079258;28;20221;-47
2022/05/04 01:24:19;;;;;;;8.47;5.93;;;;;20.60;100698.00;;;;2078705;28;20292;-46
2022/05/04 01:25:19;;;;;;;7.97;5.83;;;;;20.60;100692.00;;;;2078071;28;20240;-47
2022/05/04 01:26:20;;;;;;;6.27;5.37;;;;;20.60;100690.00;;;;2079226;28;20217;-46
2022/05/04 01:27:20;;;;;;;6.40;5.63;;;;;20.60;100702.00;;;;2079333;28;20214;-46
2022/05/04 01:28:21;;;;;;;7.53;5.73;;;;;20.60;100695.00;;;;2079520;28;20263;-46
2022/05/04 01:29:21;;;;;;;6.10;5.37;;;;;20.60;100696.00;;;;2079308;28;20222;-46
2022/05/04 01:30:22;;;;;;;7.33;5.80;;;;;20.60;100699.00;;;;2076603;28;20220;-46
2022/05/04 01:31:22;;;;;;;6.40;5.67;;;;;20.60;100692.00;;;;2071002;28;20210;-46
2022/05/04 01:32:23;;;;;;;7.90;5.43;;;;;20.60;100691.00;;;;2071319;28;20280;-47
2022/05/04 01:33:23;;;;;;;6.70;5.33;;;;;20.60;100700.00;;;;2062790;28;20222;-46
2022/05/04 01:34:27;;;;;;;6.00;5.17;;;;;20.50;100696.00;;;;2076464;28;20224;-46
2022/05/04 01:35:28;;;;;;;6.78;5.28;;;;;20.60;100699.00;;;;2079381;28;20218;-46
2022/05/04 01:36:28;;;;;;;9.10;5.70;;;;;20.50;100698.00;;;;2074948;28;20678;-46
2022/05/04 01:37:28;;;;;;;8.67;5.47;;;;;20.50;100701.00;;;;2071400;28;20671;-47
2022/05/04 01:38:29;;;;;;;7.00;5.33;;;;;20.50;100699.00;;;;2070963;28;20741;-47
2022/05/04 01:39:29;;;;;;;9.27;5.20;;;;;20.50;100692.00;;;;2071304;28;20671;-47
2022/05/04 01:40:29;;;;;;;6.13;4.90;;;;;20.50;100704.00;;;;2079403;28;20926;-46
2022/05/04 01:42:49;;;;;;;6.72;5.60;;;;;20.50;100709.00;;;;2079359;28;20213;-46
2022/05/04 01:43:50;;;;;;;6.37;5.30;;;;;20.50;100703.00;;;;2079479;28;20206;-46
2022/05/04 01:44:50;;;;;;;6.00;5.40;;;;;20.50;100701.00;;;;2075427;28;20198;-46
2022/05/04 01:45:50;;;;;;;7.87;4.90;;;;;20.50;100704.00;;;;2074780;28;20955;-46
2022/05/04 01:46:51;;;;;;;6.93;4.93;;;;;20.50;100705.00;;;;2078843;28;20300;-46
2022/05/04 01:47:51;;;;;;;8.20;5.50;;;;;20.50;100701.00;;;;2079281;28;20202;-46
2022/05/04 01:48:52;;;;;;;6.17;5.00;;;;;20.50;100703.00;;;;2077809;28;20217;-46
2022/05/04 01:49:53;;;;;;;5.22;4.70;;;;;20.50;100710.00;;;;2077335;28;20252;-47
2022/05/04 01:50:53;;;;;;;9.47;4.83;;;;;20.50;100703.00;;;;2079056;28;20236;-46
2022/05/04 01:51:53;;;;;;;6.53;5.00;;;;;20.50;100704.00;;;;2079565;28;20567;-46
2022/05/04 01:52:54;;;;;;;5.33;4.77;;;;;20.50;100707.00;;;;2071741;28;20245;-46
2022/05/04 01:53:54;;;;;;;5.80;4.70;;;;;20.50;100702.00;;;;2086834;28;20217;-46
2022/05/04 01:54:54;;;;;;;6.67;4.70;;;;;20.50;100701.00;;;;2084975;28;20213;-47
2022/05/04 01:55:55;;;;;;;6.30;4.53;;;;;20.50;100688.00;;;;2078446;28;20241;-47
2022/05/04 01:56:55;;;;;;;5.93;5.03;;;;;20.50;100708.00;;;;2075501;28;20218;-46
2022/05/04 01:57:55;;;;;;;5.20;4.70;;;;;20.50;100708.00;;;;2070344;28;20217;-46
2022/05/04 01:58:56;;;;;;;6.53;4.50;;;;;20.50;100708.00;;;;2071200;28;20306;-47
2022/05/04 01:59:57;;;;;;;6.20;4.30;;;;;20.50;100705.00;;;;2068473;28;20281;-47
2022/05/04 02:00:58;;;;;;;5.43;4.50;;;;;20.50;100709.00;;;;2071152;28;20215;-46
2022/05/04 02:01:58;;;;;;;4.70;3.95;;;;;20.50;100711.00;;;;2078373;28;20217;-47
2022/05/04 02:02:59;;;;;;;5.70;4.57;;;;;20.50;100701.00;;;;2079317;28;20884;-46
2022/05/04 02:03:59;;;;;;;5.80;4.73;;;;;20.50;100701.00;;;;2070392;28;20492;-46
2022/05/04 02:04:59;;;;;;;5.07;4.27;;;;;20.50;100706.00;;;;2070069;28;20222;-46
2022/05/04 02:06:00;;;;;;;6.00;4.30;;;;;20.50;100708.00;;;;2077791;28;20221;-46
2022/05/04 02:07:00;;;;;;;6.63;4.13;;;;;20.50;100700.00;;;;2078425;28;21119;-47
2022/05/04 02:08:01;;;;;;;5.23;4.23;;;;;20.50;100699.00;;;;2077460;28;20590;-46
2022/05/04 02:09:01;;;;;;;5.33;4.30;;;;;20.50;100699.00;;;;2070901;28;20279;-46
2022/05/04 02:10:03;;;;;;;5.77;4.87;;;;;20.50;100700.00;;;;2070931;28;20218;-46
2022/05/04 02:11:03;;;;;;;5.22;4.18;;;;;20.50;100696.00;;;;2070940;28;20225;-47
2022/05/04 02:12:04;;;;;;;5.13;3.90;;;;;20.50;100693.00;;;;2070859;28;20218;-46
2022/05/04 02:13:05;;;;;;;4.27;3.87;;;;;20.50;100702.00;;;;2070761;28;20220;-46
2022/05/04 02:14:05;;;;;;;5.93;4.20;;;;;20.50;100700.00;;;;2070692;28;20449;-46
2022/05/04 02:15:06;;;;;;;3.93;3.53;;;;;20.50;100695.00;;;;2070856;28;20214;-47
2022/05/04 02:16:06;;;;;;;3.97;3.57;;;;;20.40;100694.00;;;;2070150;28;20686;-46
2022/05/04 02:17:07;;;;;;;5.57;3.80;;;;;20.40;100688.00;;;;2070929;28;20210;-46
2022/05/04 02:18:07;;;;;;;6.00;4.33;;;;;20.40;100700.00;;;;2070282;28;20241;-46
2022/05/04 02:19:07;;;;;;;6.63;4.00;;;;;20.40;100703.00;;;;2069937;28;20214;-47
2022/05/04 02:20:08;;;;;;;4.53;3.60;;;;;20.40;100705.00;;;;2067800;28;20225;-47
2022/05/04 02:21:11;;;;;;;4.90;4.03;;;;;20.40;100709.00;;;;2071012;28;20210;-46
2022/05/04 02:22:11;;;;;;;4.50;4.10;;;;;20.40;100691.00;;;;2071091;28;20468;-46
2022/05/04 02:23:12;;;;;;;5.03;3.77;;;;;20.40;100698.00;;;;2071053;28;20213;-46
2022/05/04 02:24:12;;;;;;;4.90;3.90;;;;;20.40;100707.00;;;;2071107;28;20210;-46
2022/05/04 02:25:12;;;;;;;7.23;4.13;;;;;20.40;100706.00;;;;2070630;28;20305;-46
2022/05/04 02:26:13;;;;;;;5.07;4.27;;;;;20.40;100709.00;;;;2070240;28;20210;-46
2022/05/04 02:27:13;;;;;;;4.30;3.37;;;;;20.40;100708.00;;;;2074564;28;20690;-51
2022/05/04 02:28:13;;;;;;;5.37;3.87;;;;;20.40;100696.00;;;;2070045;28;20210;-49
2022/05/04 02:29:14;;;;;;;5.60;3.97;;;;;20.40;100697.00;;;;2070926;28;20670;-49
2022/05/04 02:30:14;;;;;;;4.40;4.00;;;;;20.40;100692.00;;;;2070670;28;20272;-46
2022/05/04 02:31:14;;;;;;;3.80;3.50;;;;;20.40;100694.00;;;;2070780;28;20253;-47
2022/05/04 02:32:15;;;;;;;3.90;3.60;;;;;20.40;100694.00;;;;2070702;28;20297;-47
2022/05/04 02:33:15;;;;;;;4.80;3.50;;;;;20.40;100694.00;;;;2070935;28;20210;-46
2022/05/04 02:34:16;;;;;;;5.10;3.67;;;;;20.40;100699.00;;;;2070693;28;20221;-47
2022/05/04 02:37:54;;;;;;;4.47;3.30;;;;;20.40;100690.00;;;;2078688;28;20694;-45
2022/05/04 02:38:54;;;;;;;4.47;3.37;;;;;20.40;100694.00;;;;2078717;28;20217;-45
2022/05/04 02:39:55;;;;;;;4.70;3.67;;;;;20.40;100697.00;;;;2078771;28;20725;-45
2022/05/04 02:40:55;;;;;;;3.87;3.50;;;;;20.40;100691.00;;;;2078718;28;20760;-45
2022/05/04 02:41:55;;;;;;;6.03;3.63;;;;;20.40;100695.00;;;;2077935;28;20214;-46
2022/05/04 02:42:56;;;;;;;4.83;3.60;;;;;20.40;100696.00;;;;2076637;28;20225;-46
2022/05/04 02:43:56;;;;;;;4.33;3.60;;;;;20.40;100689.00;;;;2078670;28;20275;-45
2022/05/04 02:44:56;;;;;;;5.90;3.87;;;;;20.40;100690.00;;;;2078858;28;20681;-45
2022/05/04 02:45:57;;;;;;;5.40;3.40;;;;;20.40;100692.00;;;;2077853;28;20206;-45
2022/05/04 02:46:57;;;;;;;3.80;3.43;;;;;20.40;100689.00;;;;2078363;28;20210;-46
2022/05/04 02:47:58;;;;;;;4.27;3.80;;;;;20.40;100697.00;;;;2078768;28;20736;-45
2022/05/04 02:48:58;;;;;;;6.00;3.83;;;;;20.40;100692.00;;;;2077351;28;20245;-46
2022/05/04 02:49:58;;;;;;;3.40;3.10;;;;;20.40;100698.00;;;;2070487;28;20218;-46
2022/05/04 02:50:59;;;;;;;4.93;3.40;;;;;20.40;100692.00;;;;2073287;28;20320;-44
2022/05/04 02:51:59;;;;;;;4.53;3.83;;;;;20.40;100699.00;;;;2077743;28;20222;-45
2022/05/04 02:52:59;;;;;;;5.83;4.03;;;;;20.40;100698.00;;;;2077668;28;20214;-45
2022/05/04 02:54:00;;;;;;;4.40;3.90;;;;;20.40;100697.00;;;;2078229;28;20214;-45
2022/05/04 02:55:00;;;;;;;4.63;3.87;;;;;20.40;100699.00;;;;2078809;28;20223;-46
2022/05/04 02:56:01;;;;;;;3.77;3.17;;;;;20.40;100697.00;;;;2077401;28;21095;-45
2022/05/04 02:57:01;;;;;;;5.10;3.60;;;;;20.40;100693.00;;;;2075603;28;20691;-45
2022/05/04 02:58:02;;;;;;;5.23;3.70;;;;;20.40;100692.00;;;;2078107;28;20996;-46
2022/05/04 02:59:02;;;;;;;3.80;3.40;;;;;20.40;100695.00;;;;2078566;28;20205;-45
2022/05/04 03:00:03;;;;;;;4.47;3.57;;;;;20.40;100688.00;;;;2078790;28;20209;-47
2022/05/04 03:02:34;;;;;;;3.60;3.30;;;;;20.30;100682.00;;;;2078753;28;20221;-45
2022/05/04 03:03:34;;;;;;;4.77;3.50;;;;;20.30;100685.00;;;;2077661;28;20221;-46
2022/05/04 03:04:34;;;;;;;3.80;3.37;;;;;20.40;100688.00;;;;2078262;28;20217;-45
2022/05/04 03:05:35;;;;;;;5.90;4.00;;;;;20.30;100685.00;;;;2077923;28;20316;-46
2022/05/04 03:06:36;;;;;;;3.47;2.77;;;;;20.30;100685.00;;;;2078561;28;20226;-47
2022/05/04 03:07:37;;;;;;;5.65;3.25;;;;;20.30;100689.00;;;;2078005;28;20221;-46
2022/05/04 03:08:37;;;;;;;4.00;3.60;;;;;20.40;100689.00;;;;2077750;28;20213;-45
2022/05/04 03:09:38;;;;;;;5.17;3.40;;;;;20.40;100686.00;;;;2078502;28;20729;-45
2022/05/04 03:11:57;;;;;;;4.70;3.45;;;;;20.30;100686.00;;;;2070468;28;20627;-44
2022/05/04 03:12:57;;;;;;;5.70;3.60;;;;;20.40;100690.00;;;;2069924;28;20219;-46
2022/05/04 03:13:59;;;;;;;4.70;3.17;;;;;20.30;100688.00;;;;2069673;28;20222;-46
2022/05/04 03:14:59;;;;;;;4.35;3.55;;;;;20.30;100687.00;;;;2078327;28;20218;-45
2022/05/04 03:16:00;;;;;;;4.07;3.10;;;;;20.30;100693.00;;;;2077219;28;20209;-46
2022/05/04 03:17:00;;;;;;;4.03;3.70;;;;;20.30;100690.00;;;;2077827;28;20225;-45
2022/05/04 03:18:00;;;;;;;3.50;3.10;;;;;20.30;100682.00;;;;2078566;28;20209;-45
2022/05/04 03:19:04;;;;;;;4.00;3.10;;;;;20.30;100684.00;;;;2078645;28;20283;-45
2022/05/04 03:20:06;;;;;;;5.00;3.33;;;;;20.30;100690.00;;;;2078362;28;20626;-45
2022/05/04 03:21:06;;;;;;;3.58;3.00;;;;;20.30;100691.00;;;;2071857;28;20210;-45
2022/05/04 03:22:07;;;;;;;7.10;3.50;;;;;20.30;100684.00;;;;2070412;28;20664;-45
2022/05/04 03:23:07;;;;;;;5.00;3.57;;;;;20.30;100682.00;;;;2067732;28;20225;-45
2022/05/04 03:24:07;;;;;;;4.87;3.33;;;;;20.30;100690.00;;;;2075928;28;20612;-45
2022/05/04 03:25:08;;;;;;;5.13;3.60;;;;;20.30;100690.00;;;;2077970;28;20225;-46
2022/05/04 03:26:09;;;;;;;3.90;3.00;;;;;20.30;100675.00;;;;2077805;28;20206;-45
2022/05/04 03:27:09;;;;;;;6.20;3.60;;;;;20.30;100680.00;;;;2078413;28;20812;-45
2022/05/04 03:28:09;;;;;;;3.87;3.20;;;;;20.30;100687.00;;;;2073189;28;20621;-45
2022/05/04 03:29:10;;;;;;;3.83;3.07;;;;;20.30;100683.00;;;;2070492;28;20238;-46
2022/05/04 03:30:11;;;;;;;3.23;2.93;;;;;20.30;100679.00;;;;2070316;28;20209;-46
2022/05/04 03:31:11;;;;;;;3.63;3.23;;;;;20.30;100685.00;;;;2069722;28;20202;-45
2022/05/04 03:32:12;;;;;;;4.27;3.17;;;;;20.30;100685.00;;;;2069838;28;20465;-46
2022/05/04 03:33:12;;;;;;;3.80;3.10;;;;;20.30;100680.00;;;;2070344;28;20214;-46
2022/05/04 03:34:12;;;;;;;5.47;2.97;;;;;20.30;100689.00;;;;2070328;28;20293;-46
2022/05/04 03:35:13;;;;;;;5.57;3.00;;;;;20.30;100687.00;;;;2070410;28;20667;-46
2022/05/04 03:36:13;;;;;;;5.23;3.20;;;;;20.30;100690.00;;;;2069414;28;20632;-45
2022/05/04 03:37:14;;;;;;;4.87;3.10;;;;;20.30;100682.00;;;;2072400;28;20574;-45
2022/05/04 03:38:14;;;;;;;3.93;3.47;;;;;20.30;100691.00;;;;2075068;28;20641;-44
2022/05/04 03:39:15;;;;;;;4.13;3.57;;;;;20.30;100685.00;;;;2078309;28;20698;-46
2022/05/04 03:40:15;;;;;;;5.40;3.47;;;;;20.30;100679.00;;;;2078468;28;20720;-46
2022/05/04 03:41:16;;;;;;;3.50;3.20;;;;;20.30;100695.00;;;;2078626;28;20223;-45
2022/05/04 03:42:16;;;;;;;3.73;3.33;;;;;20.30;100685.00;;;;2072017;28;20870;-44
2022/05/04 03:43:16;;;;;;;5.10;3.10;;;;;20.30;100684.00;;;;2070319;28;20224;-45
2022/05/04 03:44:17;;;;;;;3.67;3.33;;;;;20.30;100689.00;;;;2071215;28;20210;-45
2022/05/04 03:45:17;;;;;;;4.80;3.53;;;;;20.30;100687.00;;;;2073016;28;20248;-46
2022/05/04 03:46:22;;;;;;;4.17;3.10;;;;;20.30;100686.00;;;;2069852;28;20695;-46
2022/05/04 03:47:22;;;;;;;3.50;3.20;;;;;20.30;100686.00;;;;2070120;28;20311;-46
2022/05/04 03:48:22;;;;;;;4.60;3.30;;;;;20.30;100684.00;;;;2070376;28;20642;-45
2022/05/04 03:49:23;;;;;;;4.03;3.10;;;;;20.30;100687.00;;;;2070202;28;20644;-45
2022/05/04 03:50:23;;;;;;;3.33;2.47;;;;;20.30;100688.00;;;;2070067;28;20626;-46
2022/05/04 03:51:24;;;;;;;5.00;4.00;;;;;20.30;100695.00;;;;2070228;28;20222;-45
2022/05/04 03:52:24;;;;;;;4.60;3.40;;;;;20.30;100684.00;;;;2070417;28;20237;-46
2022/05/04 03:53:25;;;;;;;5.43;3.63;;;;;20.30;100687.00;;;;2070269;28;20860;-45
2022/05/04 03:54:25;;;;;;;6.80;3.53;;;;;20.20;100681.00;;;;2070271;28;20222;-46
2022/05/04 03:55:26;;;;;;;4.40;3.50;;;;;20.30;100688.00;;;;2069585;28;20210;-45
2022/05/04 03:56:26;;;;;;;4.33;3.57;;;;;20.30;100688.00;;;;2070364;28;20214;-45
2022/05/04 03:57:26;;;;;;;5.10;3.50;;;;;20.30;100688.00;;;;2070040;28;20249;-45
2022/05/04 03:58:27;;;;;;;4.60;3.43;;;;;20.20;100686.00;;;;2070199;28;20221;-45
2022/05/04 03:59:27;;;;;;;3.97;3.57;;;;;20.30;100689.00;;;;2070431;28;20310;-45
2022/05/04 04:00:27;;;;;;;3.77;3.13;;;;;20.30;100687.00;;;;2069857;28;20214;-45
2022/05/04 04:01:28;;;;;;;3.47;2.83;;;;;20.30;100683.00;;;;2070334;28;20217;-46
2022/05/04 04:02:28;;;;;;;3.60;3.23;;;;;20.30;100689.00;;;;2070393;28;20248;-45
2022/05/04 04:03:28;;;;;;;3.77;2.83;;;;;20.20;100684.00;;;;2070301;28;20221;-45
2022/05/04 04:04:29;;;;;;;5.20;3.40;;;;;20.30;100683.00;;;;2070354;28;20218;-45
2022/05/04 04:05:29;;;;;;;3.90;3.50;;;;;20.20;100686.00;;;;2069618;28;20249;-45
2022/05/04 04:06:30;;;;;;;4.60;3.40;;;;;20.30;100674.00;;;;2070206;28;20679;-45
2022/05/04 04:07:30;;;;;;;3.63;3.00;;;;;20.20;100689.00;;;;2073189;28;20690;-46
2022/05/04 04:08:30;;;;;;;3.33;3.03;;;;;20.30;100679.00;;;;2069635;28;20321;-46
2022/05/04 04:09:31;;;;;;;3.50;2.93;;;;;20.20;100679.00;;;;2069952;28;20218;-49
2022/05/04 04:10:31;;;;;;;4.50;3.40;;;;;20.20;100675.00;;;;2070312;28;20221;-48
2022/05/04 04:11:31;;;;;;;5.43;3.43;;;;;20.20;100673.00;;;;2069773;28;20214;-49
2022/05/04 04:12:32;;;;;;;3.57;2.87;;;;;20.20;100682.00;;;;2069617;28;20280;-47
2022/05/04 04:13:32;;;;;;;3.43;3.10;;;;;20.20;100683.00;;;;2069499;28;20603;-46
2022/05/04 04:14:32;;;;;;;3.77;3.03;;;;;20.20;100674.00;;;;2069718;28;20939;-46
2022/05/04 04:15:33;;;;;;;4.40;3.20;;;;;20.20;100680.00;;;;2067375;28;20234;-46
2022/05/04 04:16:33;;;;;;;5.17;3.50;;;;;20.20;100675.00;;;;2069685;28;20222;-45
2022/05/04 04:17:34;;;;;;;4.20;3.23;;;;;20.20;100678.00;;;;2073882;28;20217;-44
2022/05/04 04:18:34;;;;;;;5.43;3.50;;;;;20.30;100679.00;;;;2072903;28;20332;-45
2022/05/04 04:19:34;;;;;;;3.83;3.00;;;;;20.20;100682.00;;;;2070055;28;20226;-46
2022/05/04 04:21:54;;;;;;;5.00;3.30;;;;;20.20;100689.00;;;;2076998;28;20855;-45
2022/05/04 04:22:55;;;;;;;4.40;3.33;;;;;20.20;100677.00;;;;2078291;28;20221;-46
2022/05/04 04:23:56;;;;;;;3.37;2.80;;;;;20.20;100685.00;;;;2073683;28;20701;-46
2022/05/04 04:24:56;;;;;;;5.72;3.30;;;;;20.20;100687.00;;;;2069755;28;20210;-45
2022/05/04 04:25:57;;;;;;;3.87;3.40;;;;;20.20;100685.00;;;;2068738;28;20209;-45
2022/05/04 04:26:57;;;;;;;3.73;3.30;;;;;20.20;100683.00;;;;2070083;28;20245;-47
2022/05/04 04:27:57;;;;;;;4.83;3.80;;;;;20.20;100685.00;;;;2070232;28;20218;-46
2022/05/04 04:28:58;;;;;;;3.70;3.27;;;;;20.20;100695.00;;;;2070160;28;20217;-45
2022/05/04 04:29:59;;;;;;;4.10;3.10;;;;;20.20;100685.00;;;;2069975;28;20222;-45
2022/05/04 04:31:00;;;;;;;3.17;2.87;;;;;20.20;100689.00;;;;2077162;28;20897;-45
2022/05/04 04:32:00;;;;;;;4.13;3.10;;;;;20.20;100688.00;;;;2078420;28;20210;-45
2022/05/04 04:33:00;;;;;;;4.10;3.37;;;;;20.20;100688.00;;;;2078367;28;21267;-44
2022/05/04 04:34:01;;;;;;;5.03;3.77;;;;;20.20;100687.00;;;;2078330;28;20313;-45
2022/05/04 04:35:03;;;;;;;4.77;3.53;;;;;20.20;100697.00;;;;2078083;28;20209;-44
2022/05/04 04:36:04;;;;;;;4.03;3.20;;;;;20.20;100692.00;;;;2077355;28;20850;-46
2022/05/04 04:37:04;;;;;;;3.90;3.10;;;;;20.20;100701.00;;;;2072752;28;20252;-45
2022/05/04 04:38:04;;;;;;;4.50;3.20;;;;;20.20;100697.00;;;;2069930;28;20309;-45
2022/05/04 04:39:05;;;;;;;4.27;3.73;;;;;20.20;100704.00;;;;2069738;28;20214;-45
2022/05/04 04:40:06;;;;;;;4.60;3.57;;;;;20.20;100698.00;;;;2077611;28;20662;-46
2022/05/04 04:41:06;;;;;;;5.60;3.58;;;;;20.20;100698.00;;;;2077555;28;20214;-45
2022/05/04 04:42:07;;;;;;;5.07;3.40;;;;;20.20;100690.00;;;;2072119;28;20743;-48
2022/05/04 04:43:07;;;;;;;4.50;3.03;;;;;20.20;100692.00;;;;2070194;28;20853;-48
2022/05/04 04:44:08;;;;;;;5.00;3.50;;;;;20.20;100692.00;;;;2070204;28;20233;-49
2022/05/04 04:45:08;;;;;;;5.57;3.50;;;;;20.10;100696.00;;;;2069714;28;20213;-46
2022/05/04 04:46:09;;;;;;;6.80;3.20;;;;;20.10;100691.00;;;;2071733;28;20269;-46
2022/05/04 04:47:09;;;;;;;7.47;3.50;;;;;20.10;100694.00;;;;2077372;28;20281;-46
2022/05/04 04:48:09;;;;;;;5.00;3.60;;;;;20.20;100698.00;;;;2077500;28;20213;-46
2022/05/04 04:49:10;;;;;;;15.47;3.60;;;;;20.20;100700.00;;;;2078199;28;20221;-46
2022/05/04 04:50:10;;;;;;;8.97;2.63;;;;;20.20;100703.00;;;;2078096;28;20214;-46
2022/05/04 04:51:10;;;;;;;4.77;3.10;;;;;20.20;100703.00;;;;2078160;28;20206;-46
2022/05/04 04:52:11;;;;;;;3.70;2.60;;;;;20.20;100703.00;;;;2079545;28;20309;-46
2022/05/04 04:53:11;;;;;;;4.60;3.30;;;;;20.20;100707.00;;;;2079667;28;20212;-46
2022/05/04 04:54:12;;;;;;;4.50;3.00;;;;;20.20;100709.00;;;;2079474;28;20308;-46
2022/05/04 04:55:12;;;;;;;4.70;3.03;;;;;20.20;100705.00;;;;2079540;28;20216;-46
2022/05/04 04:56:13;;;;;;;4.20;2.93;;;;;20.20;100698.00;;;;2071591;28;20206;-46
2022/05/04 04:57:13;;;;;;;4.10;2.93;;;;;20.20;100700.00;;;;2070490;28;20257;-46
2022/05/04 04:58:14;;;;;;;5.27;2.80;;;;;20.20;100699.00;;;;2071021;28;20245;-45
2022/05/04 04:59:14;;;;;;;6.77;2.83;;;;;20.20;100700.00;;;;2071652;28;20206;-44
2022/05/04 05:00:15;;;;;;;4.80;2.83;;;;;20.20;100706.00;;;;2071317;28;20225;-46
2022/05/04 05:01:16;;;;;;;4.10;2.35;;;;;20.20;100706.00;;;;2076059;28;20252;-45
2022/05/04 05:02:16;;;;;;;4.50;3.30;;;;;20.20;100713.00;;;;2079729;28;20279;-44
2022/05/04 05:03:16;;;;;;;4.30;2.80;;;;;20.30;100708.00;;;;2079309;28;20210;-45
2022/05/04 05:04:17;;;;;;;6.67;3.63;;;;;20.30;100706.00;;;;2079664;28;20209;-45
2022/05/04 05:05:17;;;;;;;4.43;3.43;;;;;20.30;100707.00;;;;2079257;28;20289;-46
2022/05/04 05:06:19;;;;;;;5.00;3.43;;;;;20.20;100705.00;;;;2078792;28;20215;-46
2022/05/04 05:07:19;;;;;;;4.80;3.47;;;;;20.20;100719.00;;;;2079315;28;20647;-46
2022/05/04 05:08:19;;;;;;;4.47;3.40;;;;;20.30;100722.00;;;;2072646;28;20213;-46